Time;durP1;ratioP1;P1;durP2;ratioP2;P2;SDS_P1;SDS_P2;PMS_P1;PMS_P2;Temp;Humidity;BMP_temperature;BMP_pressure;BME280_temperature;BME280_humidity;BME280_pressure;Samples;Min_cycle;Max_cycle;Signal;HPM_P1;HPM_P2
2023/07/11 00:02:16;;;;;;;13.75;9.18;;;;;;;23.28;58.38;97599.63;5070203;28;20410;-73
2023/07/11 00:04:42;;;;;;;11.57;7.38;;;;;;;23.19;59.54;97598.88;5070264;28;20392;-73
2023/07/11 00:07:08;;;;;;;11.93;7.65;;;;;;;23.09;60.66;97602.75;5070454;28;20829;-73
2023/07/11 00:09:35;;;;;;;10.95;7.00;;;;;;;23.02;61.53;97595.16;5070289;28;20897;-73
2023/07/11 00:12:01;;;;;;;13.85;8.45;;;;;;;23.09;58.66;97605.44;5070145;28;20431;-73
2023/07/11 00:14:27;;;;;;;15.57;8.73;;;;;;;23.02;60.52;97602.47;5070023;28;20411;-73
2023/07/11 00:16:54;;;;;;;13.80;9.02;;;;;;;22.97;61.07;97594.56;5070200;28;20850;-73
2023/07/11 00:19:22;;;;;;;13.38;8.30;;;;;;;22.92;62.10;97592.84;5069293;28;20500;-73
2023/07/11 00:21:48;;;;;;;17.13;10.50;;;;;;;22.94;60.19;97589.81;5037097;28;20428;-73
2023/07/11 00:24:14;;;;;;;19.70;11.38;;;;;;;22.89;60.09;97592.69;5070035;28;20458;-73
2023/07/11 00:26:40;;;;;;;17.27;11.02;;;;;;;22.82;60.47;97592.41;5070110;28;20412;-73
2023/07/11 00:29:14;;;;;;;15.48;9.80;;;;;;;22.74;61.63;97580.53;5070149;28;20498;-73
2023/07/11 00:31:41;;;;;;;14.30;9.43;;;;;;;22.70;62.68;97585.00;5054084;28;20408;-73
2023/07/11 00:34:07;;;;;;;15.40;9.88;;;;;;;22.68;62.21;97582.59;5070045;28;20889;-73
2023/07/11 00:36:35;;;;;;;18.88;12.13;;;;;;;22.70;61.49;97569.56;5070001;28;20423;-73
2023/07/11 00:39:02;;;;;;;15.50;10.23;;;;;;;22.66;62.42;97575.94;5070244;28;20395;-73
2023/07/11 00:41:28;;;;;;;13.70;9.48;;;;;;;22.61;63.28;97576.94;5069919;28;20396;-73
2023/07/11 00:43:54;;;;;;;17.47;11.37;;;;;;;22.66;60.75;97571.34;5051923;28;20400;-73
2023/07/11 00:46:20;;;;;;;19.50;11.93;;;;;;;22.63;60.99;97576.59;5052122;28;20403;-73
2023/07/11 00:48:50;;;;;;;15.32;10.43;;;;;;;22.56;61.84;97571.69;5070165;28;20407;-73
2023/07/11 00:51:21;;;;;;;15.65;9.77;;;;;;;22.49;62.80;97571.41;5069911;28;20404;-73
2023/07/11 00:53:49;;;;;;;14.48;9.75;;;;;;;22.49;61.64;97568.72;5069803;28;20391;-73
2023/07/11 00:56:20;;;;;;;15.85;10.30;;;;;;;22.47;61.38;97562.88;5069781;28;20415;-73
2023/07/11 00:58:47;;;;;;;14.27;9.05;;;;;;;22.40;62.49;97559.88;5070108;28;20428;-73
2023/07/11 01:01:15;;;;;;;14.77;9.38;;;;;;;22.36;62.40;97567.03;5070689;28;20422;-73
2023/07/11 01:03:41;;;;;;;13.10;9.13;;;;;;;22.31;63.45;97559.91;5073537;28;20403;-73
2023/07/11 01:06:11;;;;;;;15.30;9.30;;;;;;;22.33;60.84;97557.66;5073730;28;20398;-73
2023/07/11 01:08:37;;;;;;;13.82;8.88;;;;;;;22.34;59.88;97559.25;5073579;28;20491;-73
2023/07/11 01:11:05;;;;;;;14.13;8.02;;;;;;;22.22;62.35;97559.13;5073553;28;20734;-72
2023/07/11 01:13:31;;;;;;;12.25;7.75;;;;;;;22.18;63.08;97560.06;5073177;28;20406;-73
2023/07/11 01:15:58;;;;;;;13.00;8.37;;;;;;;22.17;62.55;97551.22;5073462;28;20484;-73
2023/07/11 01:18:24;;;;;;;18.08;8.95;;;;;;;22.14;62.90;97549.16;5073322;28;20483;-73
2023/07/11 01:20:50;;;;;;;16.27;9.90;;;;;;;22.14;61.78;97543.78;5073489;28;20403;-73
2023/07/11 01:23:18;;;;;;;17.45;10.48;;;;;;;22.09;61.47;97545.84;5073040;28;20939;-73
2023/07/11 01:25:45;;;;;;;14.32;9.18;;;;;;;22.00;62.58;97551.25;5073102;28;20414;-73
2023/07/11 01:28:13;;;;;;;12.85;8.40;;;;;;;21.95;63.73;97546.03;5073325;28;20892;-73
2023/07/11 01:30:39;;;;;;;16.05;9.85;;;;;;;21.89;64.22;97548.06;5073239;28;20400;-73
2023/07/11 01:33:05;;;;;;;18.55;11.05;;;;;;;21.92;62.75;97542.06;5073174;28;20395;-73
2023/07/11 01:35:31;;;;;;;20.37;12.43;;;;;;;21.90;62.39;97549.66;5073116;28;20471;-73
2023/07/11 01:37:58;;;;;;;17.05;10.68;;;;;;;21.84;63.44;97542.84;5055161;28;20407;-73
2023/07/11 01:40:25;;;;;;;18.58;11.73;;;;;;;21.79;63.57;97539.53;5072923;28;20404;-74
2023/07/11 01:42:52;;;;;;;21.48;14.07;;;;;;;21.76;63.54;97537.47;5072987;28;20407;-73
2023/07/11 01:45:19;;;;;;;18.45;12.10;;;;;;;21.70;63.79;97536.88;5072798;28;20448;-73
2023/07/11 01:47:45;;;;;;;19.95;13.40;;;;;;;21.69;64.19;97531.78;5072425;28;20908;-73
2023/07/11 01:50:12;;;;;;;28.08;15.85;;;;;;;21.71;64.04;97524.19;5073027;28;20747;-73
2023/07/11 01:52:38;;;;;;;27.63;17.70;;;;;;;21.68;63.97;97528.28;5069381;28;20389;-73
2023/07/11 01:55:05;;;;;;;25.00;15.77;;;;;;;21.64;64.33;97524.66;5041729;28;20477;-73
2023/07/11 01:57:32;;;;;;;25.15;16.33;;;;;;;21.60;64.55;97518.31;5072745;28;20494;-73
2023/07/11 01:59:59;;;;;;;22.55;14.77;;;;;;;21.58;64.92;97525.91;5072912;28;20402;-73
2023/07/11 02:02:25;;;;;;;25.00;15.10;;;;;;;21.56;64.59;97517.38;5072508;28;20474;-73
2023/07/11 02:04:51;;;;;;;22.05;13.77;;;;;;;21.58;64.01;97518.63;5072535;28;20870;-73
2023/07/11 02:07:17;;;;;;;23.75;14.45;;;;;;;21.54;65.19;97511.53;5071990;28;20450;-73
2023/07/11 02:09:43;;;;;;;24.25;15.77;;;;;;;21.55;64.63;97507.72;5056638;28;20487;-73
2023/07/11 02:12:10;;;;;;;22.42;14.20;;;;;;;21.48;66.13;97516.28;5072110;28;20407;-73
2023/07/11 02:14:40;;;;;;;23.23;13.88;;;;;;;21.46;67.16;97510.41;5072265;28;20415;-73
2023/07/11 02:17:08;;;;;;;20.85;12.75;;;;;;;21.45;68.04;97508.03;5072474;28;20913;-73
2023/07/11 02:19:34;;;;;;;16.58;10.93;;;;;;;21.45;68.96;97502.66;5072265;28;20443;-73
2023/07/11 02:22:00;;;;;;;17.88;11.80;;;;;;;21.44;69.87;97506.44;5072109;28;20765;-73
2023/07/11 02:24:27;;;;;;;22.35;13.18;;;;;;;21.43;69.88;97505.66;5072078;28;20804;-73
2023/07/11 02:26:53;;;;;;;20.40;13.18;;;;;;;21.43;70.65;97502.16;5072195;28;20487;-73
2023/07/11 02:29:19;;;;;;;25.40;15.93;;;;;;;21.43;69.74;97502.16;5072169;28;20510;-73
2023/07/11 02:31:47;;;;;;;28.50;17.45;;;;;;;21.49;66.90;97499.00;5071980;28;20404;-73
2023/07/11 02:34:13;;;;;;;24.87;15.77;;;;;;;21.43;67.81;97502.97;5072103;28;20799;-74
2023/07/11 02:36:39;;;;;;;19.77;13.45;;;;;;;21.36;69.07;97501.84;5072057;28;20472;-72
2023/07/11 02:39:06;;;;;;;20.92;13.32;;;;;;;21.34;68.62;97506.78;5054158;28;20766;-73
2023/07/11 02:41:32;;;;;;;23.02;13.63;;;;;;;21.30;69.34;97501.22;5071947;28;20399;-73
2023/07/11 02:43:59;;;;;;;18.63;12.35;;;;;;;21.27;70.18;97499.19;5071767;28;20463;-73
2023/07/11 02:46:25;;;;;;;17.52;11.30;;;;;;;21.27;70.66;97493.00;5071777;28;20481;-73
2023/07/11 02:48:54;;;;;;;19.10;11.52;;;;;;;21.28;69.48;97494.56;5071811;28;20412;-73
2023/07/11 02:51:20;;;;;;;15.05;10.25;;;;;;;21.22;70.29;97488.56;5071650;28;20412;-73
2023/07/11 02:53:46;;;;;;;13.32;8.95;;;;;;;21.18;70.93;97491.09;5071359;28;20395;-73
2023/07/11 02:56:12;;;;;;;14.90;9.50;;;;;;;21.18;70.08;97483.03;5071604;28;20415;-73
2023/07/11 02:58:39;;;;;;;13.43;9.13;;;;;;;21.16;70.58;97487.09;5071612;28;20387;-73
2023/07/11 03:01:05;;;;;;;15.48;9.90;;;;;;;21.10;71.28;97494.56;5071433;28;20410;-73
2023/07/11 03:03:32;;;;;;;17.45;10.60;;;;;;;21.10;69.98;97478.41;5071238;28;20824;-73
2023/07/11 03:05:59;;;;;;;16.20;10.07;;;;;;;21.05;70.55;97480.47;5071416;28;20881;-73
2023/07/11 03:08:26;;;;;;;12.87;9.27;;;;;;;21.00;71.50;97483.28;5071244;28;20400;-73
2023/07/11 03:10:56;;;;;;;17.48;9.13;;;;;;;20.95;72.33;97478.88;5071529;28;20461;-73
2023/07/11 03:13:22;;;;;;;17.00;9.43;;;;;;;20.95;71.41;97475.38;5070974;28;20766;-73
2023/07/11 03:15:48;;;;;;;16.75;9.65;;;;;;;20.93;70.72;97478.38;5071177;28;20466;-73
2023/07/11 03:18:14;;;;;;;15.82;9.38;;;;;;;20.85;71.97;97479.16;5071241;28;20411;-73
2023/07/11 03:20:42;;;;;;;14.85;8.90;;;;;;;20.79;72.47;97475.84;5071140;28;20455;-73
2023/07/11 03:23:12;;;;;;;14.35;9.20;;;;;;;20.76;72.40;97475.66;5070797;28;20400;-73
2023/07/11 03:25:38;;;;;;;13.95;8.13;;;;;;;20.70;73.45;97471.56;5070428;28;20396;-73
2023/07/11 03:28:05;;;;;;;12.63;7.75;;;;;;;20.66;74.36;97465.22;5070974;28;20935;-73
2023/07/11 03:30:32;;;;;;;14.13;8.70;;;;;;;20.66;74.13;97465.22;5070855;28;20895;-73
2023/07/11 03:32:59;;;;;;;13.20;8.45;;;;;;;20.63;74.93;97463.94;5070809;28;20439;-73
2023/07/11 03:35:25;;;;;;;12.20;7.38;;;;;;;20.60;76.35;97453.03;5053945;28;20417;-73
2023/07/11 03:37:51;;;;;;;13.27;8.38;;;;;;;20.59;76.34;97463.00;5070850;28;20453;-73
2023/07/11 03:40:19;;;;;;;15.55;8.15;;;;;;;20.66;73.90;97459.84;5062110;28;20429;-73
2023/07/11 03:42:45;;;;;;;15.55;7.93;;;;;;;20.56;76.77;97460.94;5045366;28;20434;-73
2023/07/11 03:45:11;;;;;;;11.80;7.72;;;;;;;20.55;76.69;97467.41;5070751;28;20414;-73
2023/07/11 03:47:37;;;;;;;15.38;9.60;;;;;;;20.53;77.16;97461.53;5070586;28;20400;-73
2023/07/11 03:50:04;;;;;;;11.90;7.47;;;;;;;20.51;78.80;97471.06;5071097;28;20425;-73
2023/07/11 03:52:30;;;;;;;12.27;7.93;;;;;;;20.54;78.14;97459.66;5070297;28;20404;-74
2023/07/11 03:54:56;;;;;;;12.32;7.45;;;;;;;20.52;78.95;97462.69;5070723;28;20884;-73
2023/07/11 03:57:24;;;;;;;10.88;6.65;;;;;;;20.51;80.24;97461.09;5069574;28;20422;-73
2023/07/11 03:59:50;;;;;;;16.42;7.00;;;;;;;20.56;78.58;97462.81;5053668;28;20926;-73
2023/07/11 04:02:16;;;;;;;13.88;6.85;;;;;;;20.52;79.08;97459.97;5067598;28;20976;-73
2023/07/11 04:04:43;;;;;;;8.32;5.68;;;;;;;20.51;81.26;97457.59;5070750;28;20402;-73
2023/07/11 04:07:09;;;;;;;6.70;5.10;;;;;;;20.50;82.35;97454.13;5052951;28;20455;-73
2023/07/11 04:09:38;;;;;;;7.30;4.80;;;;;;;20.54;82.62;97451.59;5061963;28;20404;-73
2023/07/11 04:12:05;;;;;;;8.75;5.70;;;;;;;20.58;82.39;97455.25;5070705;28;20402;-73
2023/07/11 04:14:33;;;;;;;6.82;4.78;;;;;;;20.58;83.30;97450.66;5070520;28;20800;-73
2023/07/11 04:16:59;;;;;;;8.85;5.00;;;;;;;20.60;83.72;97453.03;5070670;28;20415;-73
2023/07/11 04:19:25;;;;;;;9.50;5.10;;;;;;;20.64;83.29;97449.41;5070790;28;20411;-74
2023/07/11 04:21:51;;;;;;;8.15;5.65;;;;;;;20.67;83.07;97448.78;5070448;28;20418;-73
2023/07/11 04:24:18;;;;;;;10.10;5.53;;;;;;;20.66;84.44;97455.25;5070521;28;20549;-74
2023/07/11 04:26:45;;;;;;;7.20;4.85;;;;;;;20.69;85.95;97445.75;5066424;28;21070;-74
2023/07/11 04:29:11;;;;;;;8.38;5.57;;;;;;;20.74;86.10;97448.31;5058594;28;20722;-73
2023/07/11 04:31:39;;;;;;;8.35;5.18;;;;;;;20.76;87.28;97454.94;5070279;28;20392;-73
2023/07/11 04:34:05;;;;;;;7.43;5.25;;;;;;;20.80;88.03;97452.44;5070544;28;20873;-73
2023/07/11 04:36:31;;;;;;;11.07;5.30;;;;;;;20.84;89.07;97450.66;5060518;28;20417;-73
2023/07/11 04:38:58;;;;;;;7.18;5.10;;;;;;;20.89;89.66;97450.53;5045239;28;20422;-73
2023/07/11 04:41:24;;;;;;;8.55;5.35;;;;;;;20.94;90.76;97453.06;5071694;28;20404;-73
2023/07/11 04:43:50;;;;;;;6.95;4.82;;;;;;;20.99;92.49;97447.50;5056037;28;20405;-73
2023/07/11 04:46:16;;;;;;;8.13;4.90;;;;;;;21.04;93.99;97452.75;5056988;28;20401;-73
2023/07/11 04:48:45;;;;;;;7.60;5.55;;;;;;;21.10;95.09;97448.00;5057370;28;20400;-73
2023/07/11 04:51:12;;;;;;;6.10;4.80;;;;;;;21.17;96.28;97445.66;5070447;28;20399;-73
2023/07/11 04:53:41;;;;;;;7.68;4.78;;;;;;;21.21;97.31;97441.19;5073641;28;20399;-73
2023/07/11 04:56:09;;;;;;;8.15;5.15;;;;;;;21.27;97.54;97447.25;5073861;28;20414;-72
2023/07/11 04:58:36;;;;;;;6.88;5.07;;;;;;;21.32;98.39;97442.47;5074759;28;20411;-73
2023/07/11 05:01:04;;;;;;;7.10;5.00;;;;;;;21.38;98.76;97438.50;5073942;28;20500;-73
2023/07/11 05:03:30;;;;;;;6.85;4.72;;;;;;;21.44;99.58;97441.81;5057837;28;20402;-74
2023/07/11 05:05:59;;;;;;;9.90;5.50;;;;;;;21.50;100.00;97445.94;5056134;28;20401;-75
2023/07/11 05:08:25;;;;;;;10.82;4.95;;;;;;;21.54;100.00;97436.88;5064348;28;20400;-74
2023/07/11 05:10:52;;;;;;;7.80;5.22;;;;;;;21.61;100.00;97439.09;5074139;28;20847;-73
2023/07/11 05:13:20;;;;;;;8.05;5.10;;;;;;;21.68;100.00;97438.59;5073189;28;20753;-74
2023/07/11 05:15:46;;;;;;;6.70;4.65;;;;;;;21.75;100.00;97441.59;5072716;28;20847;-73
2023/07/11 05:18:12;;;;;;;6.32;4.78;;;;;;;21.81;100.00;97437.59;5072243;28;20427;-73
2023/07/11 05:20:39;;;;;;;6.47;4.45;;;;;;;21.87;100.00;97433.63;5061614;28;20462;-72
2023/07/11 05:23:07;;;;;;;6.38;4.55;;;;;;;21.95;100.00;97440.91;5068368;28;20395;-72
2023/07/11 05:25:36;;;;;;;6.05;4.53;;;;;;;22.03;100.00;97440.06;5071681;28;20506;-73
2023/07/11 05:28:02;;;;;;;6.38;4.20;;;;;;;22.12;100.00;97437.34;5073285;28;20411;-73
2023/07/11 05:30:28;;;;;;;5.03;3.78;;;;;;;22.21;100.00;97425.41;5073159;28;20411;-73
2023/07/11 05:32:55;;;;;;;5.28;4.10;;;;;;;22.30;100.00;97420.78;5073055;28;20400;-73
2023/07/11 05:35:21;;;;;;;7.90;4.60;;;;;;;22.38;100.00;97417.25;5072763;28;20426;-73
2023/07/11 05:37:47;;;;;;;6.72;4.57;;;;;;;22.45;100.00;97415.94;5073225;28;20826;-73
2023/07/11 05:40:15;;;;;;;7.93;4.68;;;;;;;22.51;100.00;97414.63;5073089;28;20400;-72
2023/07/11 05:42:41;;;;;;;5.28;3.83;;;;;;;22.59;100.00;97419.16;5073028;28;20915;-73
2023/07/11 05:45:08;;;;;;;5.03;3.95;;;;;;;22.66;100.00;97414.81;5072831;28;20450;-73
2023/07/11 05:47:34;;;;;;;8.65;4.20;;;;;;;22.74;100.00;97410.50;5071957;28;20411;-73
2023/07/11 05:50:00;;;;;;;5.60;4.18;;;;;;;22.83;100.00;97405.06;5072649;28;20407;-74
2023/07/11 05:52:27;;;;;;;5.75;4.18;;;;;;;22.89;99.16;97411.81;5072539;28;20399;-74
2023/07/11 05:54:53;;;;;;;6.05;3.85;;;;;;;22.95;98.92;97408.59;5072607;28;20407;-73
2023/07/11 05:57:20;;;;;;;6.30;4.53;;;;;;;23.01;99.00;97409.97;5072643;28;20776;-74
2023/07/11 05:59:46;;;;;;;7.85;4.70;;;;;;;23.09;98.80;97406.41;5072845;28;20410;-74
2023/07/11 06:02:13;;;;;;;7.20;4.60;;;;;;;23.12;95.21;97400.34;5072517;28;20502;-73
2023/07/11 06:04:39;;;;;;;5.57;4.00;;;;;;;23.17;94.82;97405.53;5072778;28;20391;-74
2023/07/11 06:07:05;;;;;;;5.90;4.10;;;;;;;23.23;95.34;97405.34;5072618;28;20958;-74
2023/07/11 06:09:32;;;;;;;5.60;4.20;;;;;;;23.29;95.63;97401.31;5072479;28;20908;-74
2023/07/11 06:11:58;;;;;;;5.00;3.80;;;;;;;23.34;95.93;97401.09;5072529;28;20404;-74
2023/07/11 06:14:27;;;;;;;6.68;4.50;;;;;;;23.42;95.60;97397.53;5072508;28;20400;-74
2023/07/11 06:16:53;;;;;;;6.30;4.07;;;;;;;23.49;95.23;97389.69;5072604;28;20411;-74
2023/07/11 06:19:19;;;;;;;6.20;3.97;;;;;;;23.58;94.33;97395.78;5072274;28;20566;-74
2023/07/11 06:21:45;;;;;;;6.32;4.03;;;;;;;23.67;92.92;97390.28;5072189;28;20447;-74
2023/07/11 06:24:12;;;;;;;9.35;4.70;;;;;;;23.73;84.34;97392.44;5072114;28;20788;-74
2023/07/11 06:26:38;;;;;;;6.40;4.40;;;;;;;23.81;87.90;97391.56;5071946;28;20395;-74
2023/07/11 06:29:04;;;;;;;4.68;3.47;;;;;;;23.90;88.55;97389.53;5072318;28;20432;-74
2023/07/11 06:31:32;;;;;;;9.60;4.32;;;;;;;23.99;88.74;97394.81;5071826;28;20404;-74
2023/07/11 06:33:58;;;;;;;6.77;4.10;;;;;;;24.06;85.42;97392.34;5071683;28;20767;-74
2023/07/11 06:36:24;;;;;;;6.63;4.10;;;;;;;24.15;76.89;97386.81;5071756;28;20443;-74
2023/07/11 06:38:50;;;;;;;7.88;4.18;;;;;;;24.19;77.63;97387.72;5071967;28;20411;-74
2023/07/11 06:41:17;;;;;;;7.00;4.07;;;;;;;24.21;77.94;97391.69;5071777;28;20881;-74
2023/07/11 06:43:43;;;;;;;6.50;4.07;;;;;;;24.20;78.39;97386.63;5071847;28;20491;-74
2023/07/11 06:46:09;;;;;;;5.25;3.70;;;;;;;24.21;79.85;97386.28;5071637;28;20403;-74
2023/07/11 06:48:37;;;;;;;5.97;3.90;;;;;;;24.22;80.37;97389.78;5071941;28;20415;-74
2023/07/11 06:51:04;;;;;;;5.60;3.88;;;;;;;24.23;81.61;97383.25;5058784;28;20887;-74
2023/07/11 06:53:33;;;;;;;6.55;3.90;;;;;;;24.25;82.87;97381.78;5055303;28;20402;-74
2023/07/11 06:56:00;;;;;;;6.05;3.63;;;;;;;24.30;83.95;97386.94;5057962;28;20464;-73
2023/07/11 06:58:27;;;;;;;4.93;3.80;;;;;;;24.35;84.79;97375.13;5055393;28;20423;-74
2023/07/11 07:00:55;;;;;;;5.03;3.95;;;;;;;24.41;85.35;97379.16;5051150;28;20415;-74
2023/07/11 07:03:22;;;;;;;7.53;4.05;;;;;;;24.46;85.76;97373.50;5049442;28;20405;-74
2023/07/11 07:05:54;;;;;;;5.68;4.03;;;;;;;24.53;85.75;97381.06;5064091;28;20396;-74
2023/07/11 07:08:21;;;;;;;5.43;3.90;;;;;;;24.58;85.43;97378.88;5044708;28;20927;-74
2023/07/11 07:10:48;;;;;;;5.38;3.45;;;;;;;24.66;85.33;97379.88;5071268;28;20392;-74
2023/07/11 07:13:15;;;;;;;6.25;3.97;;;;;;;24.74;84.74;97375.47;5066403;28;20411;-74
2023/07/11 07:15:41;;;;;;;5.03;3.67;;;;;;;24.80;84.44;97379.53;5042285;28;20449;-74
2023/07/11 07:18:07;;;;;;;8.40;4.40;;;;;;;24.82;80.82;97378.03;5053394;28;20443;-75
2023/07/11 07:20:35;;;;;;;7.13;4.53;;;;;;;24.80;76.52;97374.91;5054424;28;20407;-74
2023/07/11 07:23:04;;;;;;;9.15;3.85;;;;;;;24.87;77.87;97375.09;5055869;28;20412;-74
2023/07/11 07:25:30;;;;;;;8.25;4.10;;;;;;;24.92;76.81;97366.75;5053183;28;20413;-74
2023/07/11 07:27:57;;;;;;;7.88;3.92;;;;;;;25.04;73.48;97357.78;5060053;28;20779;-74
2023/07/11 07:30:24;;;;;;;7.97;4.22;;;;;;;25.09;70.18;97357.56;5063445;28;20936;-74
2023/07/11 07:32:50;;;;;;;7.57;4.35;;;;;;;25.15;68.73;97363.50;5056662;28;20466;-74
2023/07/11 07:35:16;;;;;;;9.75;5.03;;;;;;;25.29;67.36;97361.16;5065685;28;20545;-74
2023/07/11 07:37:42;;;;;;;8.65;4.90;;;;;;;25.39;63.77;97357.97;5052354;28;20830;-74
2023/07/11 07:40:10;;;;;;;7.77;4.47;;;;;;;25.41;63.80;97359.16;5071104;28;20406;-74
2023/07/11 07:42:36;;;;;;;6.53;4.45;;;;;;;25.42;63.65;97352.63;5070965;28;20437;-74
2023/07/11 07:45:04;;;;;;;9.15;4.78;;;;;;;25.59;62.73;97356.16;5065984;28;20493;-73
2023/07/11 07:47:30;;;;;;;7.93;4.77;;;;;;;25.74;60.65;97358.09;5053163;28;20944;-74
2023/07/11 07:49:58;;;;;;;8.93;4.80;;;;;;;25.67;60.51;97363.34;5065756;28;20414;-74
2023/07/11 07:52:24;;;;;;;5.57;4.13;;;;;;;25.72;62.12;97352.22;5062141;28;20978;-74
2023/07/11 07:54:50;;;;;;;13.30;4.63;;;;;;;25.72;61.18;97347.59;5061968;28;20418;-74
2023/07/11 07:57:18;;;;;;;9.20;5.30;;;;;;;25.85;61.70;97351.00;5062059;28;20419;-74
2023/07/11 07:59:44;;;;;;;5.90;3.97;;;;;;;25.94;62.20;97353.56;5065934;28;20408;-74
2023/07/11 08:02:11;;;;;;;7.23;4.80;;;;;;;25.95;61.18;97347.75;5068750;28;20869;-74
2023/07/11 08:04:37;;;;;;;8.82;4.95;;;;;;;26.02;60.72;97341.69;5070565;28;20407;-74
2023/07/11 08:07:04;;;;;;;7.53;5.10;;;;;;;26.05;60.62;97332.88;5062072;28;20408;-74
2023/07/11 08:09:30;;;;;;;9.32;4.75;;;;;;;26.13;60.14;97332.69;5070602;28;20989;-71
2023/07/11 08:12:05;;;;;;;8.40;4.70;;;;;;;26.19;60.04;97331.25;5055837;28;20454;-71
2023/07/11 08:14:34;;;;;;;8.07;5.00;;;;;;;26.26;59.01;97327.16;5069071;28;20419;-71
2023/07/11 08:17:00;;;;;;;8.13;5.38;;;;;;;26.42;58.32;97315.13;5054802;28;20424;-70
2023/07/11 08:19:27;;;;;;;6.53;4.03;;;;;;;26.48;59.66;97321.03;5070416;28;20438;-71
2023/07/11 08:21:53;;;;;;;9.15;4.78;;;;;;;26.57;60.23;97327.06;5070392;28;20411;-71
2023/07/11 08:24:19;;;;;;;10.40;5.72;;;;;;;26.60;58.09;97318.22;5070574;28;20400;-71
2023/07/11 08:26:45;;;;;;;7.03;4.65;;;;;;;26.80;59.63;97317.06;5058421;28;20407;-71
2023/07/11 08:29:13;;;;;;;6.55;4.50;;;;;;;26.87;59.49;97317.19;5062138;28;20408;-71
2023/07/11 08:31:40;;;;;;;6.00;4.50;;;;;;;26.96;60.24;97308.84;5052952;28;20486;-71
2023/07/11 08:34:06;;;;;;;5.82;4.20;;;;;;;27.10;59.88;97305.63;5052222;28;20771;-71
2023/07/11 08:36:33;;;;;;;11.93;4.43;;;;;;;27.20;60.90;97303.09;5051433;28;20413;-71
2023/07/11 08:38:59;;;;;;;11.25;4.95;;;;;;;27.24;59.08;97298.50;5063246;28;20417;-70
2023/07/11 08:41:34;;;;;;;10.70;5.30;;;;;;;27.28;58.84;97299.38;5057518;28;20410;-70
2023/07/11 08:44:06;;;;;;;7.03;5.13;;;;;;;27.57;59.34;97297.94;5064892;28;20404;-70
2023/07/11 08:46:38;;;;;;;11.65;5.75;;;;;;;27.94;58.16;97298.13;5066363;28;20792;-71
2023/07/11 08:49:13;;;;;;;9.95;5.32;;;;;;;28.06;56.78;97289.72;5052334;28;20419;-70
2023/07/11 08:51:43;;;;;;;10.13;5.60;;;;;;;27.94;57.63;97284.53;5070135;28;20398;-70
2023/07/11 08:54:17;;;;;;;11.57;5.65;;;;;;;27.97;58.10;97281.03;5060716;28;20412;-70
2023/07/11 08:56:47;;;;;;;6.97;5.13;;;;;;;28.00;58.53;97280.31;5070220;28;20442;-71
2023/07/11 08:59:19;;;;;;;8.63;5.47;;;;;;;28.16;57.37;97277.47;5061397;28;20403;-70
2023/07/11 09:01:52;;;;;;;6.93;4.87;;;;;;;28.31;58.73;97273.00;5059553;28;20409;-70
2023/07/11 09:04:22;;;;;;;10.32;5.53;;;;;;;28.42;58.48;97271.19;5058138;28;20485;-70
2023/07/11 09:06:53;;;;;;;17.25;6.45;;;;;;;28.94;56.93;97273.00;5064995;28;20422;-71
2023/07/11 09:09:19;;;;;;;9.35;5.63;;;;;;;29.05;57.07;97276.59;5061127;28;20511;-71
2023/07/11 09:11:54;;;;;;;6.63;5.00;;;;;;;29.15;57.63;97270.47;5058524;28;20461;-71
2023/07/11 09:14:35;;;;;;;14.90;5.95;;;;;;;29.22;56.80;97258.84;5069974;28;20950;-70
2023/07/11 09:17:10;;;;;;;8.00;5.10;;;;;;;29.30;56.65;97254.25;5061589;28;20439;-72
2023/07/11 09:19:55;;;;;;;6.85;4.90;;;;;;;29.38;57.30;97250.44;5061293;28;20411;-71
2023/07/11 09:22:30;;;;;;;12.05;5.95;;;;;;;29.37;55.48;97254.34;5070891;28;20396;-71
2023/07/11 09:25:06;;;;;;;6.40;5.00;;;;;;;29.40;56.42;97248.91;5066907;28;20410;-71
2023/07/11 09:27:35;;;;;;;6.78;4.72;;;;;;;29.56;56.71;97240.44;5062420;28;20405;-71
2023/07/11 09:30:13;;;;;;;7.05;5.30;;;;;;;29.63;55.73;97235.81;5062174;28;20415;-71
2023/07/11 09:32:41;;;;;;;7.20;4.80;;;;;;;29.64;55.67;97240.13;5035686;28;20407;-71
2023/07/11 09:35:21;;;;;;;16.30;6.03;;;;;;;29.80;52.15;97239.06;5060241;28;20401;-71
2023/07/11 09:37:51;;;;;;;6.00;4.60;;;;;;;29.79;53.25;97226.56;5060057;28;20431;-71
2023/07/11 09:40:26;;;;;;;6.67;4.63;;;;;;;29.84;53.67;97229.75;5070419;28;20414;-71
2023/07/11 09:42:54;;;;;;;7.10;4.78;;;;;;;29.87;53.50;97231.69;5072689;28;20900;-70
2023/07/11 09:45:27;;;;;;;9.30;5.30;;;;;;;29.81;53.32;97225.03;5072501;28;20403;-70
2023/07/11 09:48:03;;;;;;;10.13;5.72;;;;;;;30.32;50.49;97229.63;5073200;28;20396;-70
2023/07/11 09:50:46;;;;;;;6.63;5.03;;;;;;;30.07;51.30;97226.78;5071258;28;20407;-71
2023/07/11 09:53:15;;;;;;;7.30;4.07;;;;;;;30.06;52.61;97219.75;5071131;28;20446;-72
2023/07/11 09:55:42;;;;;;;5.97;4.47;;;;;;;30.12;53.13;97223.69;5073065;28;20399;-71
2023/07/11 09:58:14;;;;;;;7.82;5.60;;;;;;;30.26;50.15;97220.22;5066295;28;20532;-70
2023/07/11 10:00:45;;;;;;;7.10;5.03;;;;;;;30.23;50.54;97215.53;5054172;28;20400;-70
2023/07/11 10:03:16;;;;;;;7.40;4.90;;;;;;;30.17;50.57;97215.13;5063976;28;20432;-70
2023/07/11 10:05:46;;;;;;;11.15;4.55;;;;;;;30.22;50.89;97214.00;5052211;28;20397;-71
2023/07/11 10:08:16;;;;;;;5.88;4.43;;;;;;;30.34;52.51;97214.41;5069335;28;20410;-71
2023/07/11 10:10:49;;;;;;;6.15;4.38;;;;;;;30.51;52.77;97223.88;5072897;28;20392;-71
2023/07/11 10:13:17;;;;;;;11.65;6.13;;;;;;;30.24;48.47;97222.56;5072754;28;20431;-70
2023/07/11 10:15:46;;;;;;;6.50;5.00;;;;;;;30.54;49.40;97212.16;5067019;28;20414;-71
2023/07/11 10:18:17;;;;;;;9.33;5.43;;;;;;;30.67;49.02;97216.09;5072878;28;20404;-71
2023/07/11 10:20:46;;;;;;;10.43;6.10;;;;;;;30.91;47.46;97214.59;5053087;28;20407;-71
2023/07/11 10:23:16;;;;;;;8.52;5.50;;;;;;;30.76;47.89;97211.06;5064382;28;20404;-71
2023/07/11 10:25:44;;;;;;;7.18;5.50;;;;;;;30.84;48.90;97200.13;5072669;28;20436;-71
2023/07/11 10:28:25;;;;;;;7.57;5.13;;;;;;;31.02;49.98;97196.25;5072229;28;20406;-71
2023/07/11 10:30:52;;;;;;;5.80;4.40;;;;;;;31.18;50.98;97195.91;5046459;28;20408;-71
2023/07/11 10:33:23;;;;;;;6.50;4.32;;;;;;;31.24;51.55;97193.56;5071792;28;20410;-71
2023/07/11 10:35:55;;;;;;;7.03;5.32;;;;;;;31.39;48.62;97192.38;5062889;28;20467;-71
2023/07/11 10:38:26;;;;;;;9.15;5.55;;;;;;;31.57;47.58;97193.16;5060664;28;20411;-71
2023/07/11 10:40:56;;;;;;;10.35;6.18;;;;;;;31.63;46.55;97193.56;5064644;28;20881;-71
2023/07/11 10:43:26;;;;;;;10.57;5.45;;;;;;;31.74;47.10;97186.88;5064238;28;20411;-70
2023/07/11 10:45:58;;;;;;;9.63;5.90;;;;;;;31.67;46.87;97186.13;5071924;28;20399;-70
2023/07/11 10:48:42;;;;;;;9.13;6.03;;;;;;;31.95;45.54;97188.03;5061375;28;20903;-71
2023/07/11 10:51:14;;;;;;;8.48;5.15;;;;;;;31.76;46.35;97173.59;5072135;28;20491;-71
2023/07/11 10:53:43;;;;;;;6.85;5.10;;;;;;;31.89;46.43;97173.94;5055958;28;20654;-71
2023/07/11 10:56:16;;;;;;;6.57;5.20;;;;;;;31.85;47.05;97170.44;5071656;28;20412;-71
2023/07/11 10:58:42;;;;;;;6.00;5.20;;;;;;;31.90;48.34;97159.84;5068138;28;20400;-71
2023/07/11 11:01:19;;;;;;;9.40;5.40;;;;;;;31.89;47.78;97157.50;5071686;28;20470;-71
2023/07/11 11:03:48;;;;;;;9.60;6.03;;;;;;;32.03;47.49;97146.50;5064866;28;20548;-71
2023/07/11 11:06:31;;;;;;;8.98;5.03;;;;;;;32.11;47.79;97150.78;5071303;28;20796;-71
2023/07/11 11:09:10;;;;;;;9.73;5.93;;;;;;;32.26;46.59;97149.56;5071780;28;20742;-71
2023/07/11 11:11:51;;;;;;;9.75;6.22;;;;;;;32.37;46.12;97149.50;5066644;28;20465;-71
2023/07/11 11:14:22;;;;;;;10.07;5.87;;;;;;;32.51;45.50;97141.22;5067502;28;20407;-71
2023/07/11 11:17:00;;;;;;;7.78;5.45;;;;;;;32.50;45.97;97141.59;5071225;28;20416;-71
2023/07/11 11:19:43;;;;;;;8.15;5.25;;;;;;;32.85;46.13;97135.94;5071270;28;20454;-71
2023/07/11 11:22:18;;;;;;;7.43;5.10;;;;;;;32.87;46.13;97114.34;5056176;28;20418;-71
2023/07/11 11:24:57;;;;;;;9.80;6.07;;;;;;;33.22;44.66;97118.03;5049302;28;20759;-71
2023/07/11 11:27:46;;;;;;;6.22;4.65;;;;;;;33.22;44.80;97118.81;5061688;28;20530;-71
2023/07/11 11:30:33;;;;;;;7.63;5.00;;;;;;;33.41;44.75;97111.94;5052004;28;20423;-71
2023/07/11 11:33:16;;;;;;;17.00;5.68;;;;;;;32.91;44.06;97092.41;5051278;28;20467;-71